Tiempo atmosférico en la estación meteorológica de Jaca, Huesca (830 m.)



Fecha
DESCASC
Temp. máxima en grados centígrados (hora)
DESCASC
Temp. mínima en grados centígrados (hora)
DESCASC
Temp. media en grados centígrados
DESCASC
Racha de viento máxima en m/sg (hora)
DESCASC
Velocidad máxima media en intervalos de 10 minutos(hora)
DESCASC
Precipitaciones diarias en mm
DESCASC
Precipitaciones de 00:00 a 06:00 en mm
DESCASC
Precipitaciones de 06:00 a 12:00 en mm
DESCASC
Precipitaciones de 12:00 a 18:00 en mm
DESCASC
Precipitaciones de 18:00 a 24:00 en mm
DESCASC
21-02-2021 15 (14:20) 8.3 (23:59) 11.7 15 (13:20) 6.11 (13:30) 1.8 0 0 0 1.8
20-02-2021 17.9 (15:30) 5.4 (06:10) 11.6 11.11 (13:30) 4.44 (18:10) 0 0 0 0 0
19-02-2021 15.9 (15:30) 2.3 (07:20) 9.1 6.94 (13:20) 3.61 (14:00) 0 0 0 0 0
18-02-2021 16.4 (14:10) 4.1 (00:00) 10.2 7.5 (13:30) 3.06 (20:10) 0 0 0 0 0
17-02-2021 14.8 (14:10) 3 (00:00) 8.9 5.28 (07:30) 2.22 (08:10) 0 0 0 0 0
16-02-2021 13.5 (15:30) 0.3 (00:00) 6.9 6.94 (03:20) 3.61 (01:20) 0 0 0 0 0
15-02-2021 14 (14:30) 3.7 (00:00) 8.9 5.83 (14:30) 3.33 (23:59) 0 0 0 0 0
14-02-2021 12.1 (14:10) -1.2 (-00:0) 5.5 7.78 (14:50) 3.89 (08:40) 0 0 0 0 0
13-02-2021 12.7 (14:30) 1.3 (00:00) 7 9.72 (15:00) 4.44 (15:00) 0 0 0 0 0
12-02-2021 8.7 (16:20) 5 (00:00) 6.8 12.5 (18:20) 5.28 (20:10) 6.9 0 4.5 2.3 0.1
11-02-2021 11.2 (14:30) -0.7 (-00:0) 5.2 6.39 (20:10) 3.89 (20:10) 0 0 0 0 0
10-02-2021 6.1 (15:40) 0.7 (00:00) 3.4 10.28 (12:30) 4.72 (21:30) 2.8 0.3 2.5 0 0
09-02-2021 4.6 (13:40) 2.1 (00:00) 3.3 7.78 (15:50) 3.33 (15:50) 11.9 0.5 2.3 8.8 0.3
08-02-2021 5.9 (17:20) 1.2 (00:00) 3.6 6.39 (19:40) 2.78 (19:50) 6.8 2 1.5 2.3 1
07-02-2021 6.8 (14:20) -1.2 (-00:0) 2.8 10.56 (12:30) 4.72 (15:10) 0.3 0 0 0 0.3
06-02-2021 12.8 (00:40) 2 (00:00) 7.4 8.33 (00:20) 3.61 (00:30) 7.9 0 3.5 3.7 0.7
05-02-2021 17.5 (13:50) 7.7 (00:00) 12.6 11.94 (12:20) 4.44 (12:30) 0 0 0 0 0
04-02-2021 15.5 (14:00) 8.3 (00:00) 11.9 8.61 (14:10) 3.33 (14:10) 0 0 0 0 0
03-02-2021 14 (14:40) 4.1 (00:00) 9 5.83 (12:30) 2.5 (23:10) 0.1 0.1 0 0 0
02-02-2021 -- (--) -- (--) -- -- (--) -- (--) -- -- 0 0 0
01-02-2021 9.7 (14:50) 5.2 (00:00) 7.4 15.28 (01:20) 6.94 (19:40) 2.7 1.7 0.8 0.2 0
31-01-2021 7.8 (13:30) 1.8 (00:00) 4.8 11.94 (12:30) 5 (13:50) 4.7 3.5 0.6 0.2 0.4
30-01-2021 8.7 (12:20) 1.8 (00:00) 5.2 17.22 (16:40) 8.33 (16:40) 16.8 0 6.8 9.2 0.8
29-01-2021 13.5 (14:30) 5.6 (00:00) 9.5 9.44 (22:20) 3.89 (14:50) 0.7 0 0 0.7 0
28-01-2021 -- (--) -- (--) -- -- (--) -- (--) -- -- -- -- --
27-01-2021 -- (--) -- (--) -- -- (--) -- (--) -- -- -- -- --
26-01-2021 -- (--) -- (--) -- -- (--) -- (--) -- 0 0 0 --
25-01-2021 5.9 (16:40) 0.2 (00:00) 3.1 10.28 (16:30) 3.61 (18:00) 6.5 1.3 5.2 0 0

Gráficas

Temp. máximas Temp. mínimas Temp. medias Precipitaciones Rachas de viento máximas Velocidades máximas media en intervalos de 10 minutos

Datos horarios

Fecha y hora oficial Temperatura (ºC) Velocidad del viento (km/h) Dirección del viento Racha (km/h) Dirección de racha Precipitación (mm) Presión (hPa) Tendencia (hPa) Humedad (%)
2021-02-23 23:00:00 7.9 4 Este 11 Este 0 -- -- 58
2021-02-23 22:00:00 8.4 6 Este 15 Sudeste 0 -- -- 57
2021-02-23 21:00:00 8.2 5 Este 11 Sudeste 0 -- -- 59
2021-02-23 20:00:00 8.8 5 Sudeste 14 Sudeste 0 -- -- 55
2021-02-23 19:00:00 10.3 6 Sudeste 15 Sur 0 -- -- 49
2021-02-23 18:00:00 12 6 Sudeste 27 Sudeste 0 -- -- 44
2021-02-23 17:00:00 12.1 8 Sur 25 Sudeste 0 -- -- 44
2021-02-23 16:00:00 12.2 10 Sudeste 29 Sudeste 0 -- -- 43
2021-02-23 15:00:00 11.9 11 Sur 35 Sur 0 -- -- 46
2021-02-23 14:00:00 11.4 12 Sur 35 Sur 0 -- -- 49
2021-02-23 13:00:00 10.6 9 Sudeste 30 Sur 0 -- -- 56
2021-02-23 12:00:00 10.3 11 Sur 25 Sur 0 -- -- 57
2021-02-23 11:00:00 9.3 9 Sudeste 22 Sur 0 -- -- 65
2021-02-23 10:00:00 8.4 5 Sur 14 Sudeste 0 -- -- 77
2021-02-23 09:00:00 6.7 5 Sudeste 16 Este 0.1 -- -- 85
2021-02-23 08:00:00 5.9 6 Este 14 Este 0.1 -- -- 88
2021-02-23 07:00:00 4.8 3 Este 6 Nordeste 0 -- -- 89
2021-02-23 06:00:00 3.8 2 Nordeste 5 Este 0 -- -- 88
2021-02-23 05:00:00 3 2 Este 6 Norte 0 -- -- 88
2021-02-23 04:00:00 3 3 Norte 9 Nordeste 0 -- -- 88
2021-02-23 03:00:00 3.5 4 Este 8 Este 0 -- -- 88
2021-02-23 02:00:00 4.1 3 Este 7 Este 0 -- -- 88
2021-02-23 01:00:00 4.3 2 Este 6 Nordeste 0 -- -- 87
2021-02-23 00:00:00 4.6 4 Nordeste 10 Este 0 -- -- 86
2021-02-22 23:00:00 4.7 3 Este 10 Sudeste 0.1 -- -- 84
2021-02-22 22:00:00 5.1 3 Este 7 Sudeste 0.1 -- -- 85
2021-02-22 21:00:00 5.2 5 Este 11 Sudeste 0.6 -- -- 84
2021-02-22 20:00:00 5.5 5 Este 13 Sudeste 0.4 -- -- 84
2021-02-22 19:00:00 5.8 3 Este 10 Sudeste 0.4 -- -- 85
2021-02-22 18:00:00 6.3 5 Este 13 Sudeste 0.4 -- -- 87
2021-02-22 17:00:00 6.5 2 Este 10 Sudeste 0.5 -- -- 89
2021-02-22 16:00:00 5.9 2 Este 10 Sur 0.8 -- -- 90
2021-02-22 15:00:00 4.8 0 Calma 11 Oeste 2.3 -- -- 89
2021-02-22 14:00:00 4.2 3 Oeste 15 Noroeste 2.7 -- -- 89
2021-02-22 13:00:00 3.7 5 Noroeste 15 Oeste 2.6 -- -- 89
2021-02-22 12:00:00 3.6 4 Oeste 15 Noroeste 3.2 -- -- 89
2021-02-22 11:00:00 3.6 4 Oeste 30 Oeste 0.3 -- -- 88
2021-02-22 10:00:00 4.8 10 Oeste 24 Noroeste 3.3 -- -- 85
2021-02-22 09:00:00 7.5 6 Sur 35 Sur 3.3 -- -- 82
2021-02-22 08:00:00 8 10 Sudeste 41 Sudeste 2.3 -- -- 81
2021-02-22 07:00:00 7.8 9 Sudeste 29 Sudeste 1.9 -- -- 83
2021-02-22 06:00:00 8.4 11 Sudeste 37 Sudeste 1.3 -- -- 74
2021-02-22 05:00:00 9 8 Sudeste 24 Sudeste 0.1 -- -- 70
2021-02-22 04:00:00 7.7 7 Sudeste 20 Sudeste 0.4 -- -- 81
2021-02-22 03:00:00 7.2 3 Este 17 Sudeste 1.9 -- -- 82
2021-02-22 02:00:00 7.5 4 Sudeste 18 Sudeste 2.8 -- -- 78
2021-02-22 01:00:00 8.2 6 Este 19 Este 0.9 -- -- 73
2021-02-22 00:00:00 8.4 8 Sudeste 22 Este 1.1 -- -- 70
2021-02-21 23:00:00 9.6 13 Este 41 Este 0.7 -- -- 55
2021-02-21 22:00:00 11.7 9 Sudeste 31 Sudeste 0 -- -- 37
2021-02-21 21:00:00 12 13 Sudeste 37 Sudeste 0 -- -- 36
2021-02-21 20:00:00 12 13 Sudeste 38 Sudeste 0 -- -- 35
2021-02-21 19:00:00 12.1 15 Sudeste 36 Sudeste 0 -- -- 34
2021-02-21 18:00:00 12.5 11 Sudeste 32 Sur 0 -- -- 32
2021-02-21 17:00:00 13.1 17 Sudeste 46 Sudeste 0 -- -- 31
2021-02-21 16:00:00 14 19 Sudeste 46 Sudeste 0 -- -- 29
2021-02-21 15:00:00 14.3 14 Sudeste 52 Sudeste 0 -- -- 28
2021-02-21 14:00:00 14.6 14 Sudeste 54 Sur 0 -- -- 27
2021-02-21 13:00:00 14.6 19 Sudeste 51 Sudeste 0 -- -- 25
2021-02-21 12:00:00 14.4 20 Sudeste 50 Sudeste 0 -- -- 25
2021-02-21 11:00:00 13.9 16 Sudeste 43 Sudeste 0 -- -- 25
2021-02-21 10:00:00 12.6 15 Sudeste 34 Sudeste 0 -- -- 27
2021-02-21 09:00:00 9.8 10 Sudeste 24 Este 0 -- -- 30
2021-02-21 08:00:00 9.7 10 Sudeste 27 Este 0 -- -- 30
2021-02-21 07:00:00 9.6 11 Sudeste 41 Sudeste 0 -- -- 30
2021-02-21 06:00:00 9.9 16 Sudeste 39 Sudeste 0 -- -- 30
2021-02-21 05:00:00 10.6 16 Sudeste 46 Sudeste 0 -- -- 28
2021-02-21 04:00:00 11.3 16 Sudeste 35 Sudeste 0 -- -- 27
2021-02-21 03:00:00 11.3 15 Sudeste 37 Sudeste 0 -- -- 27
2021-02-21 02:00:00 11.2 12 Sudeste 31 Sudeste 0 -- -- 27
2021-02-21 01:00:00 11.3 11 Sudeste 34 Sudeste 0 -- -- 27
2021-02-21 00:00:00 10.8 12 Sudeste 33 Sudeste 0 -- -- 28
2021-02-20 23:00:00 11.7 13 Sudeste 30 Sudeste 0 -- -- 27
2021-02-20 22:00:00 12.2 12 Sudeste 39 Sudeste 0 -- -- 27
2021-02-20 21:00:00 12.1 12 Sudeste 39 Sudeste 0 -- -- 28
2021-02-20 20:00:00 12 13 Sudeste 31 Sudeste 0 -- -- 30
2021-02-20 19:00:00 12.9 12 Sudeste 39 Sudeste 0 -- -- 29
2021-02-20 18:00:00 14.6 13 Sudeste 39 Sudeste 0 -- -- 26
2021-02-20 17:00:00 16.2 10 Sudeste 39 Sudeste 0 -- -- 24
2021-02-20 16:00:00 16.6 15 Sur 37 Sur 0 -- -- 23
2021-02-20 15:00:00 17.3 14 Sudeste 40 Sudeste 0 -- -- 24
2021-02-20 14:00:00 16.8 13 Sudeste 40 Sur 0 -- -- 25
2021-02-20 13:00:00 16.4 13 Sudeste 39 Sudeste 0 -- -- 24
2021-02-20 12:00:00 15.9 13 Sudeste 38 Sudeste 0 -- -- 27
2021-02-20 11:00:00 15.3 14 Sudeste 34 Sudeste 0 -- -- 31
2021-02-20 10:00:00 12 9 Sudeste 28 Sudeste 0 -- -- 38
2021-02-20 09:00:00 8.2 9 Sudeste 21 Este 0 -- -- 44
2021-02-20 08:00:00 6.7 11 Sudeste 21 Sudeste 0 -- -- 46
2021-02-20 07:00:00 7.1 11 Este 22 Sudeste 0 -- -- 45
2021-02-20 06:00:00 5.5 3 Nordeste 14 Sudeste 0 -- -- 49
2021-02-20 05:00:00 7.5 5 Este 18 Este 0 -- -- 45
2021-02-20 04:00:00 6.8 5 Este 15 Sudeste 0 -- -- 47
2021-02-20 03:00:00 7.5 5 Este 17 Este 0 -- -- 47
2021-02-20 02:00:00 6.8 6 Este 18 Este 0 -- -- 49
2021-02-20 01:00:00 6.8 6 Este 13 Sudeste 0 -- -- 49
2021-02-20 00:00:00 5.8 4 Este 12 Sudeste 0 -- -- 51
2021-02-19 23:00:00 6.1 4 Este 12 Este 0 -- -- 49
2021-02-19 22:00:00 6.8 4 Este 17 Este 0 -- -- 45
2021-02-19 21:00:00 7.9 5 Este 15 Este 0 -- -- 43
2021-02-19 20:00:00 8.5 5 Nordeste 16 Nordeste 0 -- -- 40
2021-02-19 19:00:00 10.2 2 Norte 10 Sudeste 0 -- -- 38
2021-02-19 18:00:00 13.5 4 Este 13 Sur 0 -- -- 30
2021-02-19 17:00:00 14.3 6 Sur 24 Sur 0 -- -- 28
2021-02-19 16:00:00 15.6 5 Sur 19 Sudeste 0 -- -- 28
2021-02-19 15:00:00 15.8 6 Sur 19 Sudeste 0 -- -- 29
2021-02-19 14:00:00 14.8 13 Sudoeste 25 Oeste 0 -- -- 31
2021-02-19 13:00:00 14.8 8 Sudoeste 22 Oeste 0 -- -- 32
2021-02-19 12:00:00 13.8 7 Sudeste 22 Sudeste 0 -- -- 34
2021-02-19 11:00:00 11.6 6 Sudeste 18 Sudeste 0 -- -- 43
2021-02-19 10:00:00 7.4 6 Sudeste 13 Este 0 -- -- 59
2021-02-19 09:00:00 4.3 4 Sudeste 9 Sudeste 0 -- -- 68
2021-02-19 08:00:00 2.6 2 Sudoeste 13 Nordeste 0 -- -- 73
2021-02-19 07:00:00 2.5 5 Nordeste 13 Nordeste 0 -- -- 72
2021-02-19 06:00:00 3.3 4 Nordeste 19 Nordeste 0 -- -- 66
2021-02-19 05:00:00 4.1 11 Nordeste 21 Nordeste 0 -- -- 64
2021-02-19 04:00:00 4.5 8 Nordeste 23 Nordeste 0 -- -- 63
2021-02-19 03:00:00 5.3 6 Nordeste 24 Nordeste 0 -- -- 60
2021-02-19 02:00:00 5.8 8 Nordeste 18 Nordeste 0 -- -- 59
2021-02-19 01:00:00 5.4 8 Nordeste 20 Nordeste 0 -- -- 59
2021-02-19 00:00:00 6.5 0 Calma 18 Nordeste 0 -- -- 53
2021-02-18 23:00:00 6.5 10 Nordeste 23 Nordeste 0 -- -- 52
2021-02-18 22:00:00 7.2 6 Nordeste 17 Nordeste 0 -- -- 49
2021-02-18 21:00:00 8.4 6 Nordeste 21 Nordeste 0 -- -- 46
2021-02-18 20:00:00 9.3 8 Nordeste 19 Nordeste 0 -- -- 44
2021-02-18 19:00:00 10.3 6 Nordeste 12 Nordeste 0 -- -- 39
2021-02-18 18:00:00 13.5 0 Calma 13 Sudoeste 0 -- -- 32
2021-02-18 17:00:00 14.6 3 Sudoeste 14 Oeste 0 -- -- 29
2021-02-18 16:00:00 14.3 4 Noroeste 20 Sudoeste 0 -- -- 28
2021-02-18 15:00:00 16.3 3 Sudoeste 20 Sudoeste 0 -- -- 27
2021-02-18 14:00:00 15.9 5 Sudoeste 27 Sudoeste 0 -- -- 29
2021-02-18 13:00:00 14.4 9 Sudoeste 22 Sudoeste 0 -- -- 31
2021-02-18 12:00:00 13.8 4 Sudoeste 19 Sudoeste 0 -- -- 34
2021-02-18 11:00:00 12.4 3 Sudeste 15 Sudeste 0 -- -- 38
2021-02-18 10:00:00 8.6 0 Calma 16 Este 0 -- -- 57
2021-02-18 09:00:00 5.6 5 Este 16 Este 0 -- -- 68
2021-02-18 08:00:00 4.5 6 Nordeste 14 Sudeste 0 -- -- 70
2021-02-18 07:00:00 4.3 4 Nordeste 14 Nordeste 0 -- -- 70
2021-02-18 06:00:00 4.9 5 Nordeste 17 Este 0 -- -- 69
2021-02-18 05:00:00 7.3 10 Este 19 Este 0 -- -- 64
2021-02-18 04:00:00 7.5 6 Este 20 Este 0 -- -- 64
2021-02-18 03:00:00 6.9 6 Este 17 Sudeste 0 -- -- 68
2021-02-18 02:00:00 5.9 4 Nordeste 15 Nordeste 0 -- -- 70
2021-02-18 01:00:00 6.7 4 Nordeste 14 Nordeste 0 -- -- 66
2021-02-18 00:00:00 7.2 4 Nordeste 16 Nordeste 0 -- -- 65
2021-02-17 23:00:00 7.6 6 Este 18 Nordeste 0 -- -- 63
2021-02-17 22:00:00 8.5 3 Este 12 Este 0 -- -- 61
2021-02-17 21:00:00 9 5 Este 9 Este 0 -- -- 59
2021-02-17 20:00:00 10.1 0 Calma 15 Nordeste 0 -- -- 57
2021-02-17 19:00:00 10.7 0 Calma 5 Nordeste 0 -- -- 53
2021-02-17 18:00:00 11.8 0 Calma 4 Nordeste 0 -- -- 49
2021-02-17 17:00:00 12.8 2 Norte 13 Sudoeste 0 -- -- 43
2021-02-17 16:00:00 13.1 4 Sudoeste 12 Sudoeste 0 -- -- 38
2021-02-17 15:00:00 14.5 0 Calma 11 Sudeste 0 -- -- 38
2021-02-17 14:00:00 13.8 2 Este 11 Sudeste 0 -- -- 39
2021-02-17 13:00:00 12.8 3 Sudeste 11 Sur 0 -- -- 47
2021-02-17 12:00:00 10.2 4 Sudeste 9 Sudeste 0 -- -- 58
2021-02-17 11:00:00 8.3 0 Calma 11 Sur 0 -- -- 65
2021-02-17 10:00:00 7.1 4 Sudeste 13 Sudeste 0 -- -- 70
2021-02-17 09:00:00 3.7 5 Nordeste 15 Nordeste 0 -- -- 83
2021-02-17 08:00:00 3.3 5 Nordeste 19 Nordeste 0 -- -- 83
2021-02-17 07:00:00 3.2 6 Nordeste 17 Nordeste 0 -- -- 81
2021-02-17 06:00:00 3.6 5 Este 12 Nordeste 0 -- -- 81
2021-02-17 05:00:00 3.8 0 Calma 12 Nordeste 0 -- -- 79
2021-02-17 04:00:00 4.5 5 Sudeste 12 Este 0 -- -- 78
2021-02-17 03:00:00 4.7 2 Norte 7 Norte 0 -- -- 77
2021-02-17 02:00:00 5.2 0 Calma 8 Nordeste 0 -- -- 74
2021-02-17 01:00:00 5.7 0 Calma 14 Nordeste 0 -- -- 73
2021-02-17 00:00:00 6.2 0 Calma 9 Sudeste 0 -- -- 70
2021-02-16 23:00:00 6.6 3 Sudeste 17 Norte 0 -- -- 68
2021-02-16 22:00:00 6.6 10 Nordeste 19 Nordeste 0 -- -- 68
2021-02-16 21:00:00 7.3 3 Nordeste 6 Sudoeste 0 -- -- 65
2021-02-16 20:00:00 8.7 3 Noroeste 19 Norte 0 -- -- 59
2021-02-16 19:00:00 9.9 0 Calma 4 Nordeste 0 -- -- 57
2021-02-16 18:00:00 11 0 Calma 10 Noroeste 0 -- -- 53
2021-02-16 17:00:00 12.2 3 Oeste 10 Noroeste 0 -- -- 46
2021-02-16 16:00:00 13.1 2 Sudeste 7 Sudeste 0 -- -- 41
2021-02-16 15:00:00 13.3 3 Sur 11 Sudeste 0 -- -- 40
2021-02-16 14:00:00 13.2 6 Sudeste 15 Sudeste 0 -- -- 37
2021-02-16 13:00:00 11.5 6 Sudeste 17 Sudeste 0 -- -- 42
2021-02-16 12:00:00 9.6 8 Sudeste 18 Sudeste 0 -- -- 47
2021-02-16 11:00:00 7.8 3 Sudeste 9 Sur 0 -- -- 62
2021-02-16 10:00:00 3.6 5 Sudeste 12 Sudeste 0 -- -- 75
2021-02-16 09:00:00 1 3 Sudeste 15 Nordeste 0 -- -- 83
2021-02-16 08:00:00 0.5 4 Este 16 Nordeste 0 -- -- 84
2021-02-16 07:00:00 0.4 2 Nordeste 16 Nordeste 0 -- -- 85
2021-02-16 06:00:00 0.6 8 Nordeste 18 Nordeste 0 -- -- 84
2021-02-16 05:00:00 1.3 8 Nordeste 21 Este 0 -- -- 84
2021-02-16 04:00:00 1.8 4 Nordeste 25 Nordeste 0 -- -- 84
2021-02-16 03:00:00 2 9 Nordeste 21 Nordeste 0 -- -- 83
2021-02-16 02:00:00 2.3 9 Nordeste 22 Nordeste 0 -- -- 83
2021-02-16 01:00:00 2.9 12 Nordeste 22 Nordeste 0 -- -- 81
2021-02-16 00:00:00 3.8 12 Nordeste 21 Nordeste 0 -- -- 79
2021-02-15 23:00:00 4.5 6 Nordeste 16 Este 0 -- -- 75
2021-02-15 22:00:00 5.8 4 Este 14 Este 0 -- -- 70
2021-02-15 21:00:00 7.2 5 Este 14 Este 0 -- -- 64
2021-02-15 20:00:00 8.2 5 Este 12 Este 0 -- -- 59
2021-02-15 19:00:00 9 5 Este 13 Sudeste 0 -- -- 56
2021-02-15 18:00:00 10.1 3 Oeste 10 Sudoeste 0 -- -- 52
2021-02-15 17:00:00 11.9 3 Nordeste 12 Sudeste 0 -- -- 44
2021-02-15 16:00:00 13.2 5 Sudeste 18 Sudeste 0 -- -- 40
2021-02-15 15:00:00 13.7 4 Sudeste 21 Este 0 -- -- 40
2021-02-15 14:00:00 12.4 5 Sudeste 15 Sur 0 -- -- 42
2021-02-15 13:00:00 11.7 6 Sur 17 Sur 0 -- -- 44
2021-02-15 12:00:00 10.2 5 Sudeste 17 Sudeste 0 -- -- 51
2021-02-15 11:00:00 8.6 7 Sudeste 17 Sudeste 0 -- -- 54
2021-02-15 10:00:00 6.2 4 Nordeste 15 Nordeste 0 -- -- 68
2021-02-15 09:00:00 4.7 5 Nordeste 14 Nordeste 0 -- -- 75
2021-02-15 08:00:00 4 6 Nordeste 18 Nordeste 0 -- -- 76
2021-02-15 07:00:00 4 9 Nordeste 17 Nordeste 0 -- -- 76
2021-02-15 06:00:00 4.4 6 Nordeste 17 Nordeste 0 -- -- 73
2021-02-15 05:00:00 4.8 4 Nordeste 11 Sudeste 0 -- -- 72
2021-02-15 04:00:00 5 4 Este 15 Este 0 -- -- 70
2021-02-15 03:00:00 5.1 5 Este 15 Sudeste 0 -- -- 70
2021-02-15 02:00:00 5.1 5 Este 17 Este 0 -- -- 70
2021-02-15 01:00:00 5.1 7 Este 20 Sudeste 0 -- -- 70
2021-02-15 00:00:00 5.2 6 Este 17 Sudeste 0 -- -- 69
2021-02-14 23:00:00 5.5 7 Este 21 Sudeste 0 -- -- 69
2021-02-14 22:00:00 5.4 8 Este 18 Sudeste 0 -- -- 67
2021-02-14 21:00:00 5.9 5 Sudeste 16 Sudeste 0 -- -- 64
2021-02-14 20:00:00 6.4 8 Sudeste 18 Sudeste 0 -- -- 60
2021-02-14 19:00:00 7.3 5 Sudeste 19 Sudeste 0 -- -- 53
2021-02-14 18:00:00 8.8 7 Sudeste 18 Sudeste 0 -- -- 47
2021-02-14 17:00:00 9.8 6 Sudeste 27 Sur 0 -- -- 44
2021-02-14 16:00:00 11 9 Sur 24 Sur 0 -- -- 40
2021-02-14 15:00:00 10.8 11 Sur 28 Sur 0 -- -- 40
2021-02-14 14:00:00 11.8 8 Sudeste 24 Sudeste 0 -- -- 40
2021-02-14 13:00:00 11 10 Sudeste 27 Sudeste 0 -- -- 42
2021-02-14 12:00:00 10.2 9 Sudeste 26 Sur 0 -- -- 45
2021-02-14 11:00:00 7.5 12 Sudeste 23 Sudeste 0 -- -- 57
2021-02-14 10:00:00 3.1 4 Este 21 Nordeste 0 -- -- 66
2021-02-14 09:00:00 0.1 8 Nordeste 26 Nordeste 0 -- -- 74
2021-02-14 08:00:00 -1.2 4 Nordeste 15 Nordeste 0 -- -- 79
2021-02-14 07:00:00 -1 8 Nordeste 17 Nordeste 0 -- -- 79
2021-02-14 06:00:00 -1 6 Nordeste 17 Nordeste 0 -- -- 79
2021-02-14 05:00:00 -0.6 6 Nordeste 25 Nordeste 0 -- -- 79
2021-02-14 04:00:00 -0.5 11 Nordeste 19 Nordeste 0 -- -- 79
2021-02-14 03:00:00 0.2 10 Nordeste 23 Nordeste 0 -- -- 78
2021-02-14 02:00:00 0.2 10 Nordeste 22 Nordeste 0 -- -- 78
2021-02-14 01:00:00 0.6 6 Nordeste 13 Nordeste 0 -- -- 78
2021-02-14 00:00:00 1.3 2 Este 10 Nordeste 0 -- -- 75
2021-02-13 23:00:00 1.7 0 Calma 7 Nordeste 0 -- -- 73
2021-02-13 22:00:00 2.4 3 Norte 10 Noroeste 0 -- -- 69
2021-02-13 21:00:00 4 3 Oeste 12 Noroeste 0 -- -- 65
2021-02-13 20:00:00 5.2 5 Oeste 18 Noroeste 0 -- -- 58
2021-02-13 19:00:00 6.3 9 Oeste 19 Oeste 0 -- -- 54
2021-02-13 18:00:00 8 7 Oeste 24 Noroeste 0 -- -- 51
2021-02-13 17:00:00 9 10 Noroeste 25 Noroeste 0 -- -- 51
2021-02-13 16:00:00 9.7 13 Noroeste 33 Noroeste 0 -- -- 53
2021-02-13 15:00:00 10.7 16 Noroeste 35 Oeste 0 -- -- 47
2021-02-13 14:00:00 10.6 8 Noroeste 21 Oeste 0 -- -- 49
2021-02-13 13:00:00 8.8 6 Noroeste 15 Noroeste 0 -- -- 59
2021-02-13 08:00:00 2.3 4 Sudeste 14 Sudeste 0 -- -- 87
2021-02-13 07:00:00 2.3 2 Nordeste 9 Noroeste 0 -- -- 87
2021-02-13 06:00:00 3 4 Oeste 15 Oeste 0 -- -- 85
2021-02-13 05:00:00 3.9 6 Sudoeste 15 Sudoeste 0 -- -- 85
2021-02-13 04:00:00 3.2 5 Norte 14 Sudoeste 0 -- -- 83
2021-02-13 03:00:00 4.3 5 Oeste 20 Noroeste 0 -- -- 81
2021-02-13 02:00:00 4.1 3 Oeste 26 Noroeste 0 -- -- 78
2021-02-13 01:00:00 4.6 15 Noroeste 26 Noroeste 0 -- -- 78
2021-02-13 00:00:00 5 8 Oeste 20 Noroeste 0 -- -- 72
2021-02-12 23:00:00 5.8 10 Noroeste 28 Noroeste 0 -- -- 68
2021-02-12 22:00:00 6.4 15 Noroeste 36 Noroeste 0 -- -- 68
2021-02-12 21:00:00 5.9 16 Noroeste 39 Noroeste 0 -- -- 74
2021-02-12 20:00:00 6.5 18 Noroeste 40 Noroeste 0 -- -- 70
2021-02-12 19:00:00 7.2 17 Noroeste 45 Noroeste 0.1 -- -- 67
2021-02-12 18:00:00 7.5 15 Noroeste 33 Noroeste 0 -- -- 79
2021-02-12 17:00:00 8.2 15 Noroeste 33 Oeste 0 -- -- 87
2021-02-12 16:00:00 7.9 14 Noroeste 33 Noroeste 0 -- -- 89
2021-02-12 15:00:00 8.4 14 Noroeste 31 Noroeste 0.1 -- -- 89
2021-02-12 14:00:00 7.9 12 Noroeste 31 Noroeste 0.1 -- -- 89
2021-02-12 13:00:00 7.5 9 Noroeste 24 Noroeste 2.1 -- -- 89
2021-02-12 12:00:00 8.1 3 Oeste 9 Noroeste 0.6 -- -- 88
2021-02-12 11:00:00 7.8 0 Calma 6 Sudeste 1.2 -- -- 88
2021-02-12 10:00:00 6.9 4 Sudeste 12 Sur 1.4 -- -- 87
2021-02-12 09:00:00 6.7 3 Nordeste 11 Sur 1.2 -- -- 85
2021-02-12 08:00:00 6.5 5 Sur 11 Sudeste 0.1 -- -- 81
2021-02-12 07:00:00 6.6 4 Sudeste 10 Sur 0 -- -- 81
2021-02-12 06:00:00 6.5 2 Norte 12 Sudeste 0 -- -- 82
2021-02-12 05:00:00 6.2 4 Este 12 Nordeste 0 -- -- 83
2021-02-12 04:00:00 6 5 Este 21 Nordeste 0 -- -- 83
2021-02-12 03:00:00 5.4 9 Nordeste 18 Nordeste 0 -- -- 83
2021-02-12 02:00:00 6.1 5 Este 12 Este 0 -- -- 83
2021-02-12 01:00:00 5.5 0 Calma 19 Nordeste 0 -- -- 82
2021-02-12 00:00:00 5.9 8 Nordeste 15 Nordeste 0 -- -- 81
2021-02-11 23:00:00 6 8 Nordeste 20 Nordeste 0 -- -- 81
2021-02-11 22:00:00 6.1 10 Nordeste 20 Nordeste 0 -- -- 79
2021-02-11 21:00:00 6.5 5 Nordeste 23 Nordeste 0 -- -- 79
2021-02-11 20:00:00 7.1 8 Nordeste 17 Nordeste 0 -- -- 79
2021-02-11 19:00:00 8.8 2 Nordeste 4 Noroeste 0 -- -- 70
2021-02-11 18:00:00 10.1 2 Noroeste 9 Oeste 0 -- -- 64
2021-02-11 17:00:00 10.5 3 Oeste 21 Noroeste 0 -- -- 61
2021-02-11 16:00:00 11 2 Oeste 22 Noroeste 0 -- -- 59
2021-02-11 15:00:00 10.8 8 Noroeste 19 Noroeste 0 -- -- 58
2021-02-11 14:00:00 10.6 7 Noroeste 21 Noroeste 0 -- -- 58
2021-02-11 13:00:00 9.4 6 Noroeste 17 Noroeste 0 -- -- 59
2021-02-11 12:00:00 8.9 3 Sur 9 Sur 0 -- -- 54
2021-02-11 11:00:00 5.2 3 Sudeste 10 Sudeste 0 -- -- 62
2021-02-11 10:00:00 2.1 5 Sudeste 10 Sudeste 0 -- -- 75
2021-02-11 09:00:00 -0.4 3 Este 12 Este 0 -- -- 83
2021-02-11 08:00:00 -0.5 3 Sudeste 10 Sur 0 -- -- 83
2021-02-11 07:00:00 -0.5 4 Sudeste 9 Este 0 -- -- 84
2021-02-11 06:00:00 -0.2 3 Este 15 Nordeste 0 -- -- 84
2021-02-11 05:00:00 -0.2 2 Este 13 Nordeste 0 -- -- 84
2021-02-11 04:00:00 0 9 Nordeste 19 Nordeste 0 -- -- 84
2021-02-11 03:00:00 -0.4 8 Nordeste 19 Nordeste 0 -- -- 84
2021-02-11 02:00:00 -0.1 4 Nordeste 9 Nordeste 0 -- -- 83
2021-02-11 01:00:00 0.7 2 Nordeste 15 Nordeste 0 -- -- 83
2021-02-11 00:00:00 0.9 4 Nordeste 11 Nordeste 0 -- -- 81
2021-02-10 23:00:00 1.9 4 Nordeste 14 Oeste 0 -- -- 75
2021-02-10 22:00:00 3.1 8 Noroeste 32 Norte 0 -- -- 72
2021-02-10 21:00:00 2.7 6 Norte 20 Nordeste 0 -- -- 79
2021-02-10 20:00:00 2.9 8 Noroeste 24 Noroeste 0 -- -- 84
2021-02-10 19:00:00 3.4 13 Noroeste 27 Noroeste 0 -- -- 83
2021-02-10 18:00:00 4.2 13 Noroeste 35 Noroeste 0 -- -- 79
2021-02-10 17:00:00 5.1 12 Noroeste 31 Noroeste 0 -- -- 77
2021-02-10 16:00:00 5.3 10 Noroeste 27 Noroeste 0 -- -- 74
2021-02-10 15:00:00 5.2 6 Oeste 32 Noroeste 0 -- -- 75
2021-02-10 14:00:00 5.9 6 Oeste 36 Noroeste 0 -- -- 73
2021-02-10 13:00:00 5.5 14 Noroeste 37 Oeste 0 -- -- 72
2021-02-10 12:00:00 4.3 13 Noroeste 29 Oeste 0 -- -- 89
2021-02-10 11:00:00 2.8 5 Noroeste 22 Noroeste 0.1 -- -- 89
2021-02-10 10:00:00 1.9 4 Norte 11 Este 0.5 -- -- 89
2021-02-10 09:00:00 0.9 6 Nordeste 17 Nordeste 0.9 -- -- 89
2021-02-10 08:00:00 1.3 12 Nordeste 19 Nordeste 0.6 -- -- 88
2021-02-10 07:00:00 1.9 4 Este 13 Este 0.4 -- -- 88
2021-02-10 06:00:00 1.9 6 Nordeste 13 Nordeste 0.2 -- -- 88
2021-02-10 05:00:00 1.9 4 Este 11 Sur 0 -- -- 87
2021-02-10 04:00:00 2.1 3 Nordeste 16 Nordeste 0 -- -- 87
2021-02-10 03:00:00 2.3 6 Nordeste 17 Nordeste 0 -- -- 85
2021-02-10 02:00:00 2.5 6 Este 13 Sudeste 0 -- -- 87
2021-02-10 01:00:00 2.6 6 Sudeste 12 Sudeste 0.1 -- -- 88
2021-02-10 00:00:00 2.6 0 Calma 9 Sur 0 -- -- 88
2021-02-09 23:00:00 2.5 3 Sudeste 18 Nordeste 0 -- -- 88
2021-02-09 22:00:00 2.5 3 Este 9 Sudeste 0 -- -- 87
2021-02-09 21:00:00 2.5 2 Este 11 Nordeste 0 -- -- 87
2021-02-09 20:00:00 3 4 Sudeste 20 Nordeste 0 -- -- 87
2021-02-09 19:00:00 2.9 8 Nordeste 19 Nordeste 0.3 -- -- 86
2021-02-09 18:00:00 3.3 3 Este 15 Sudeste 0.9 -- -- 83
2021-02-09 17:00:00 3.5 6 Sudeste 21 Este 1.6 -- -- 81
2021-02-09 16:00:00 3.5 8 Este 28 Sudeste 2.4 -- -- 81
2021-02-09 15:00:00 4.1 9 Este 21 Este 1.3 -- -- 83
2021-02-09 14:00:00 4.4 8 Este 17 Este 2.2 -- -- 85
2021-02-09 13:00:00 4.3 6 Sudeste 18 Este 0.4 -- -- 86
2021-02-09 12:00:00 4.1 5 Este 19 Sudeste 0 -- -- 89
2021-02-09 11:00:00 3.8 5 Este 13 Este 0.8 -- -- 89
2021-02-09 10:00:00 3.7 2 Este 9 Nordeste 0.5 -- -- 89
2021-02-09 09:00:00 3.2 2 Sudeste 15 Sudeste 0.4 -- -- 89
2021-02-09 08:00:00 2.9 5 Sudeste 14 Sudeste 0.6 -- -- 89
2021-02-09 07:00:00 2.7 0 Calma 8 Sudeste 0 -- -- 89
2021-02-09 06:00:00 2.8 4 Sudeste 15 Nordeste 0 -- -- 89
2021-02-09 05:00:00 2.4 5 Nordeste 12 Nordeste 0 -- -- 89
2021-02-09 04:00:00 2.1 3 Nordeste 8 Nordeste 0 -- -- 89
2021-02-09 03:00:00 2.5 3 Nordeste 10 Nordeste 0.1 -- -- 89
2021-02-09 02:00:00 2.6 5 Oeste 10 Noroeste 0.3 -- -- 89
2021-02-09 01:00:00 2.6 5 Noroeste 11 Noroeste 0.1 -- -- 89
2021-02-09 00:00:00 2.3 5 Noroeste 17 Noroeste 0 -- -- 89
2021-02-08 23:00:00 2.5 6 Noroeste 19 Noroeste 0 -- -- 89
2021-02-08 22:00:00 2.8 8 Noroeste 14 Norte 0.3 -- -- 88
2021-02-08 21:00:00 3.1 7 Noroeste 14 Noroeste 0 -- -- 87
2021-02-08 20:00:00 3.2 7 Noroeste 23 Oeste 0.7 -- -- 84
2021-02-08 19:00:00 4.4 5 Noroeste 12 Norte 0 -- -- 79
2021-02-08 18:00:00 4.7 5 Norte 15 Norte 0 -- -- 83
2021-02-08 17:00:00 5.5 6 Noroeste 21 Noroeste 0 -- -- 85
2021-02-08 16:00:00 5.5 7 Oeste 18 Noroeste 0.4 -- -- 88
2021-02-08 15:00:00 4.9 7 Noroeste 17 Oeste 0 -- -- 88
2021-02-08 14:00:00 4.7 0 Calma 5 Noroeste 0.1 -- -- 89
2021-02-08 13:00:00 3.8 3 Nordeste 7 Sur 1.8 -- -- 89
2021-02-08 12:00:00 3.2 4 Sur 10 Sudeste 0.3 -- -- 89
2021-02-08 11:00:00 2.8 5 Sudeste 10 Sudeste 0.4 -- -- 88
2021-02-08 10:00:00 2.7 3 Este 11 Sudeste 0.6 -- -- 88
2021-02-08 09:00:00 2.3 4 Sudeste 8 Este 0 -- -- 88
2021-02-08 08:00:00 2 3 Este 13 Sur 0 -- -- 88
2021-02-08 07:00:00 2.1 4 Este 10 Sudeste 0.2 -- -- 88
2021-02-08 06:00:00 1.7 3 Este 11 Sudeste 0.5 -- -- 88
2021-02-08 05:00:00 1.6 5 Sudeste 11 Sudeste 0.5 -- -- 88
2021-02-08 04:00:00 1.5 4 Sudeste 10 Sudeste 0.3 -- -- 88
2021-02-08 03:00:00 1.5 3 Sudeste 7 Sudeste 0.4 -- -- 88
2021-02-08 02:00:00 1.2 2 Nordeste 10 Nordeste 0 -- -- 88
2021-02-08 01:00:00 1.2 0 Calma 9 Noroeste 0.3 -- -- 85
2021-02-08 00:00:00 1.4 5 Noroeste 10 Noroeste 0.2 -- -- 84
2021-02-07 23:00:00 1.7 0 Calma 11 Sudoeste 0.1 -- -- 79
2021-02-07 22:00:00 2 6 Sudoeste 16 Noroeste 0 -- -- 74
2021-02-07 21:00:00 2.4 7 Norte 23 Norte 0 -- -- 65
2021-02-07 20:00:00 2.9 6 Noroeste 11 Noroeste 0 -- -- 72
2021-02-07 19:00:00 3.4 5 Noroeste 18 Noroeste 0 -- -- 66
2021-02-07 18:00:00 4 6 Oeste 33 Noroeste 0 -- -- 65
2021-02-07 17:00:00 4.6 8 Oeste 26 Noroeste 0 -- -- 62
2021-02-07 16:00:00 5.6 9 Oeste 38 Noroeste 0 -- -- 58
2021-02-07 15:00:00 5.8 15 Noroeste 34 Noroeste 0 -- -- 59
2021-02-07 14:00:00 5.9 12 Oeste 34 Oeste 0 -- -- 55
2021-02-07 13:00:00 6.6 11 Noroeste 38 Noroeste 0 -- -- 52
2021-02-07 12:00:00 5.2 14 Noroeste 27 Sudoeste 0 -- -- 48
2021-02-07 11:00:00 3.6 5 Oeste 14 Noroeste 0 -- -- 65
2021-02-07 10:00:00 0.7 4 Noroeste 19 Sudoeste 0 -- -- 77
2021-02-07 09:00:00 -0.9 3 Oeste 18 Noroeste 0 -- -- 81
2021-02-07 08:00:00 -1.2 7 Oeste 23 Noroeste 0 -- -- 84
2021-02-07 07:00:00 -0.8 6 Oeste 21 Noroeste 0 -- -- 84
2021-02-07 06:00:00 -0.6 9 Oeste 24 Noroeste 0 -- -- 85
2021-02-07 05:00:00 -0.4 7 Noroeste 23 Noroeste 0 -- -- 84
2021-02-07 04:00:00 0.5 6 Oeste 31 Oeste 0 -- -- 85
2021-02-07 03:00:00 1 8 Noroeste 23 Noroeste 0 -- -- 87
2021-02-07 02:00:00 1.4 10 Noroeste 23 Noroeste 0 -- -- 87
2021-02-07 01:00:00 1.7 10 Noroeste 26 Oeste 0 -- -- 89
2021-02-07 00:00:00 2.1 10 Noroeste 27 Noroeste 0 -- -- 89
2021-02-06 23:00:00 2.3 10 Noroeste 24 Noroeste 0 -- -- 89
2021-02-06 22:00:00 3.1 10 Noroeste 26 Noroeste 0 -- -- 89
2021-02-06 21:00:00 3.9 13 Noroeste 27 Noroeste 0 -- -- 89
2021-02-06 20:00:00 4.9 8 Noroeste 25 Noroeste 0.1 -- -- 89
2021-02-06 19:00:00 5.3 6 Noroeste 14 Oeste 0.6 -- -- 89
2021-02-06 18:00:00 5.6 3 Noroeste 20 Noroeste 1.1 -- -- 88
2021-02-06 17:00:00 5.9 8 Noroeste 17 Oeste 1.3 -- -- 87
2021-02-06 16:00:00 6.2 10 Noroeste 23 Noroeste 1 -- -- 83
2021-02-06 15:00:00 8.3 4 Sudoeste 15 Sur 0.3 -- -- 70
2021-02-06 14:00:00 9.1 2 Sur 10 Nordeste 0 -- -- 67
2021-02-06 13:00:00 8.3 8 Nordeste 13 Nordeste 0 -- -- 83
2021-02-06 12:00:00 7.9 2 Nordeste 9 Nordeste 0 -- -- 85
2021-02-06 11:00:00 6.7 5 Nordeste 11 Nordeste 0.5 -- -- 83
2021-02-06 10:00:00 7 7 Nordeste 12 Nordeste 0.6 -- -- 82
2021-02-06 09:00:00 6.7 2 Nordeste 9 Nordeste 1.9 -- -- 81
2021-02-06 08:00:00 7.1 2 Noroeste 18 Noroeste 0.5 -- -- 75
2021-02-06 07:00:00 9.1 5 Norte 25 Oeste 0 -- -- 47
2021-02-06 06:00:00 10.5 0 Calma 25 Sudeste 0 -- -- 39
2021-02-06 05:00:00 11.2 7 Este 27 Sudeste 0 -- -- 36
2021-02-06 04:00:00 11.3 3 Sudeste 16 Sur 0 -- -- 34
2021-02-06 03:00:00 12.6 7 Sudeste 20 Este 0 -- -- 32
2021-02-06 02:00:00 11.9 9 Sudeste 29 Sur 0 -- -- 32
2021-02-06 01:00:00 12.8 11 Sudeste 30 Este 0 -- -- 31
2021-02-06 00:00:00 11.9 9 Sudeste 28 Sudeste 0 -- -- 33
2021-02-05 23:00:00 11.6 10 Sudeste 31 Sudeste 0 -- -- 34
2021-02-05 22:00:00 12.3 10 Este 30 Sudeste 0 -- -- 33
2021-02-05 21:00:00 12.5 11 Sudeste 26 Sur 0 -- -- 34
2021-02-05 20:00:00 12.7 10 Sudeste 27 Sudeste 0 -- -- 34
2021-02-05 19:00:00 13 9 Sudeste 22 Sudeste 0 -- -- 34
2021-02-05 18:00:00 14.2 8 Sudeste 33 Sudeste 0 -- -- 32
2021-02-05 17:00:00 15.4 9 Sudeste 27 Sur 0 -- -- 31
2021-02-05 16:00:00 16.3 9 Sudeste 34 Sur 0 -- -- 29
2021-02-05 15:00:00 17 14 Sudeste 34 Sur 0 -- -- 28
2021-02-05 14:00:00 16.9 12 Sudeste 40 Sur 0 -- -- 28
2021-02-05 13:00:00 16.6 16 Sudeste 43 Sur 0 -- -- 28
2021-02-05 12:00:00 17.1 12 Sudeste 31 Sudeste 0 -- -- 31
2021-02-05 11:00:00 12.3 0 Calma 10 Este 0 -- -- 49
2021-02-05 10:00:00 9.8 3 Este 14 Este 0 -- -- 56
2021-02-05 09:00:00 8.6 5 Nordeste 25 Nordeste 0 -- -- 58
2021-02-05 08:00:00 8 13 Nordeste 21 Nordeste 0 -- -- 59
2021-02-05 07:00:00 8.1 10 Nordeste 22 Nordeste 0 -- -- 58
2021-02-05 06:00:00 8.8 5 Nordeste 12 Este 0 -- -- 53
2021-02-05 05:00:00 9.6 5 Este 14 Sudeste 0 -- -- 49
2021-02-05 04:00:00 9.7 4 Nordeste 22 Nordeste 0 -- -- 49
2021-02-05 03:00:00 9.7 5 Este 15 Nordeste 0 -- -- 49
2021-02-05 02:00:00 10.1 4 Nordeste 17 Este 0 -- -- 47
2021-02-05 01:00:00 10.4 4 Este 13 Sudeste 0 -- -- 46
2021-02-05 00:00:00 10.6 5 Sudeste 18 Sudeste 0 -- -- 47
2021-02-04 23:00:00 10.9 6 Sudeste 20 Sudeste 0 -- -- 46
2021-02-04 22:00:00 10.4 4 Este 22 Sudeste 0 -- -- 45
2021-02-04 21:00:00 10.8 8 Sudeste 24 Sudeste 0 -- -- 46
2021-02-04 20:00:00 11.3 6 Sudeste 24 Sudeste 0 -- -- 44
2021-02-04 19:00:00 12.1 12 Sudeste 27 Sudeste 0 -- -- 42
2021-02-04 18:00:00 13.2 9 Sudeste 21 Sudeste 0 -- -- 39
2021-02-04 17:00:00 14.2 5 Sudeste 20 Sudeste 0 -- -- 38
2021-02-04 16:00:00 14.8 8 Sudeste 28 Sudeste 0 -- -- 37
2021-02-04 15:00:00 14.8 12 Sudeste 31 Sudeste 0 -- -- 38
2021-02-04 14:00:00 15.4 12 Sudeste 30 Sudeste 0 -- -- 38
2021-02-04 13:00:00 14.2 9 Sudeste 23 Sur 0 -- -- 43
2021-02-04 12:00:00 13.4 5 Sudeste 17 Sudeste 0 -- -- 49
2021-02-04 11:00:00 11.2 4 Este 13 Sudeste 0 -- -- 61
2021-02-04 10:00:00 9.9 3 Este 14 Sur 0 -- -- 64
2021-02-04 09:00:00 9.7 3 Este 15 Sudeste 0 -- -- 62
2021-02-04 08:00:00 9.4 6 Sudeste 15 Sudeste 0 -- -- 62
2021-02-04 07:00:00 9.3 4 Sudeste 18 Este 0 -- -- 62
2021-02-04 06:00:00 10.1 6 Sudeste 19 Sudeste 0 -- -- 59
2021-02-04 05:00:00 9.3 5 Sudeste 18 Sudeste 0 -- -- 62
2021-02-04 04:00:00 9.2 5 Sudeste 19 Sudeste 0 -- -- 62
2021-02-04 03:00:00 8.9 8 Sudeste 20 Sudeste 0 -- -- 64
2021-02-04 02:00:00 8.9 8 Sudeste 21 Sudeste 0 -- -- 65
2021-02-04 01:00:00 8.4 5 Sudeste 15 Sur 0 -- -- 66
2021-02-04 00:00:00 9.3 7 Sudeste 17 Sudeste 0 -- -- 63
2021-02-03 23:00:00 8.7 5 Sudeste 18 Sudeste 0 -- -- 67
2021-02-03 22:00:00 8.4 0 Calma 9 Nordeste 0 -- -- 70
2021-02-03 21:00:00 8.4 3 Este 14 Nordeste 0 -- -- 70
2021-02-03 20:00:00 9 3 Nordeste 13 Nordeste 0 -- -- 67
2021-02-03 19:00:00 10.1 2 Nordeste 7 Sudeste 0 -- -- 57
2021-02-03 18:00:00 11 0 Calma 4 Nordeste 0 -- -- 52
2021-02-03 17:00:00 11.6 2 Norte 10 Norte 0 -- -- 51
2021-02-03 16:00:00 12 3 Norte 14 Noroeste 0 -- -- 48
2021-02-03 15:00:00 13.1 5 Noroeste 17 Noroeste 0 -- -- 46
2021-02-03 14:00:00 13 7 Sur 19 Este 0 -- -- 46
2021-02-03 13:00:00 11.6 6 Sudeste 21 Este 0 -- -- 49
2021-02-03 12:00:00 10.4 5 Sudeste 15 Sudeste 0 -- -- 57
2021-02-03 11:00:00 9.1 2 Sudeste 16 Sudeste 0 -- -- 70
2021-02-03 10:00:00 7.8 2 Este 14 Sudeste 0 -- -- 76
2021-02-03 09:00:00 6.3 3 Este 18 Sudoeste 0 -- -- 79
2021-02-03 08:00:00 6.3 3 Sudeste 16 Sudeste 0 -- -- 83
2021-02-03 07:00:00 5.1 4 Sudeste 13 Sudeste 0 -- -- 83
2021-02-03 06:00:00 4.6 5 Sudeste 13 Nordeste 0 -- -- 83
2021-02-03 05:00:00 4.4 7 Nordeste 15 Nordeste 0 -- -- 83
2021-02-03 04:00:00 5.2 5 Nordeste 12 Sudeste 0 -- -- 79
2021-02-03 03:00:00 6.4 4 Nordeste 13 Este 0 -- -- 78
2021-02-03 02:00:00 5.9 4 Este 18 Nordeste 0.1 -- -- 81
2021-02-03 01:00:00 5.7 5 Nordeste 12 Nordeste 0 -- -- 79
2021-02-03 00:00:00 6.7 5 Nordeste 18 Nordeste 0 -- -- 75
2021-02-02 23:00:00 7.6 3 Este 14 Norte 0 -- -- 72
2021-02-02 22:00:00 8.5 4 Nordeste 12 Nordeste 0 -- -- 68
2021-02-02 21:00:00 10.1 3 Sudeste 6 Sur 0 -- -- 61
2021-02-02 20:00:00 11.4 0 Calma 9 Sudoeste 0 -- -- 53
2021-02-02 19:00:00 13.1 3 Sudoeste 7 Noroeste 0 -- -- 44
2021-02-02 18:00:00 14.7 3 Sudoeste 10 Sudoeste 0 -- -- 40
2021-02-02 17:00:00 13.8 2 Oeste 11 Oeste 0 -- -- 42
2021-02-02 16:00:00 14.5 3 Sudoeste 15 Noroeste 0 -- -- 44
2021-02-02 15:00:00 14.1 5 Sudoeste 22 Noroeste 0 -- -- 46
2021-02-02 14:00:00 12.9 3 Noroeste 15 Noroeste 0 -- -- 49
2021-02-02 13:00:00 12.4 4 Sudoeste 13 Noroeste 0 -- -- 53
2021-02-02 12:00:00 10.4 5 Noroeste 21 Noroeste 0 -- -- 59
2021-02-02 11:00:00 9.2 5 Noroeste 20 Nordeste 0 -- -- 65
2021-02-02 10:00:00 9.5 7 Noroeste 41 Noroeste 0 -- -- 61
2021-02-02 09:00:00 9.8 13 Norte 33 Norte 0 -- -- 56
2021-02-02 08:00:00 9.7 13 Norte 29 Noroeste 0 -- -- 59
2021-02-02 07:00:00 7.1 8 Norte 24 Norte 0 -- -- 85
2021-02-02 06:00:00 7.2 7 Noroeste -- -- -- -- -- 87
2021-02-02 05:00:00 -- -- -- -- -- -- -- -- --
2021-02-02 04:00:00 7.2 11 Noroeste 22 Noroeste 0 -- -- 87
2021-02-02 03:00:00 6.6 4 Oeste 25 Noroeste 0 -- -- 87
2021-02-02 02:00:00 6.6 12 Noroeste 26 Noroeste 0 -- -- 87
2021-02-02 01:00:00 6.9 7 Noroeste 15 Noroeste 0 -- -- 84
2021-02-02 00:00:00 6.8 8 Noroeste 18 Noroeste 0 -- -- 83
2021-02-01 23:00:00 7.1 9 Noroeste 22 Noroeste 0 -- -- 77
2021-02-01 22:00:00 7.3 8 Noroeste 21 Noroeste 0 -- -- 72
2021-02-01 21:00:00 6.8 2 Oeste 29 Oeste 0 -- -- 79
2021-02-01 20:00:00 9.4 15 Noroeste 51 Noroeste 0 -- -- 51
2021-02-01 19:00:00 7.1 14 Noroeste 34 Noroeste 0 -- -- 89
2021-02-01 18:00:00 7.4 15 Noroeste 32 Noroeste 0.1 -- -- 88
2021-02-01 17:00:00 7.8 14 Noroeste 35 Oeste 0 -- -- 83
2021-02-01 16:00:00 8.9 14 Noroeste 30 Noroeste 0 -- -- 74
2021-02-01 15:00:00 9.3 10 Noroeste 31 Norte 0 -- -- 65
2021-02-01 14:00:00 -- -- -- -- -- -- -- -- --
2021-02-01 13:00:00 -- -- -- -- -- -- -- -- --
2021-02-01 12:00:00 -- -- -- -- -- -- -- -- --
2021-02-01 11:00:00 -- -- -- -- -- -- -- -- --
2021-02-01 10:00:00 -- -- -- -- -- -- -- -- --
2021-02-01 09:00:00 -- -- -- -- -- -- -- -- --
2021-02-01 08:00:00 -- -- -- -- -- -- -- -- --
2021-02-01 07:00:00 -- -- -- -- -- -- -- -- --
2021-02-01 06:00:00 -- -- -- -- -- -- -- -- --
2021-02-01 05:00:00 -- -- -- -- -- -- -- -- --
2021-02-01 04:00:00 -- -- -- -- -- -- -- -- --
2021-02-01 03:00:00 -- -- -- -- -- -- -- -- --
2021-02-01 02:00:00 -- -- -- -- -- -- -- -- --
2021-02-01 01:00:00 -- -- -- -- -- -- -- -- --
2021-02-01 00:00:00 -- -- -- -- -- -- -- -- --
2021-01-31 23:00:00 -- -- -- -- -- -- -- -- --
2021-01-31 22:00:00 -- -- -- -- -- -- -- -- --
2021-01-31 21:00:00 -- -- -- -- -- -- -- -- --
2021-01-31 20:00:00 -- -- -- -- -- -- -- -- --
2021-01-31 19:00:00 -- -- -- -- -- -- -- -- --
2021-01-31 18:00:00 -- -- -- -- -- -- -- -- --
2021-01-31 17:00:00 -- -- -- -- -- -- -- -- --
2021-01-31 16:00:00 -- -- -- -- -- -- -- -- --
2021-01-31 15:00:00 -- -- -- -- -- -- -- -- --
2021-01-31 14:00:00 -- -- -- -- -- -- -- -- --
2021-01-31 13:00:00 -- -- -- -- -- -- -- -- --
2021-01-31 12:00:00 -- -- -- -- -- -- -- -- --
2021-01-31 11:00:00 -- -- -- -- -- -- -- -- --
2021-01-31 10:00:00 -- -- -- -- -- -- -- -- --
2021-01-31 09:00:00 -- -- -- -- -- -- -- -- --
2021-01-31 08:00:00 -- -- -- -- -- -- -- -- --
2021-01-31 07:00:00 -- -- -- -- -- -- -- -- --
2021-01-31 06:00:00 -- -- -- -- -- -- -- -- --
2021-01-31 05:00:00 -- -- -- -- -- -- -- -- --
2021-01-31 04:00:00 -- -- -- -- -- -- -- -- --
2021-01-31 03:00:00 -- -- -- -- -- -- -- -- --
2021-01-31 02:00:00 -- -- -- -- -- -- -- -- --
2021-01-31 01:00:00 -- -- -- -- -- -- -- -- --
2021-01-31 00:00:00 -- -- -- -- -- -- -- -- --
2021-01-30 23:00:00 -- -- -- -- -- -- -- -- --
2021-01-30 22:00:00 -- -- -- -- -- -- -- -- --
2021-01-30 21:00:00 -- -- -- -- -- -- -- -- --
2021-01-30 20:00:00 -- -- -- -- -- -- -- -- --
2021-01-30 19:00:00 -- -- -- -- -- -- -- -- --
2021-01-30 18:00:00 -- -- -- -- -- -- -- -- --
2021-01-30 17:00:00 -- -- -- -- -- -- -- -- --
2021-01-30 16:00:00 -- -- -- -- -- -- -- -- --
2021-01-30 15:00:00 -- -- -- -- -- -- -- -- --
2021-01-30 14:00:00 -- -- -- -- -- -- -- -- --
2021-01-30 13:00:00 -- -- -- -- -- -- -- -- --
2021-01-30 12:00:00 -- -- -- -- -- -- -- -- --
2021-01-30 11:00:00 -- -- -- -- -- -- -- -- --
2021-01-30 10:00:00 -- -- -- -- -- -- -- -- --
2021-01-30 09:00:00 -- -- -- -- -- -- -- -- --
2021-01-30 08:00:00 -- -- -- -- -- -- -- -- --
2021-01-30 07:00:00 -- -- -- -- -- -- -- -- --
2021-01-30 06:00:00 -- -- -- -- -- -- -- -- --
2021-01-30 05:00:00 -- -- -- -- -- -- -- -- --
2021-01-30 04:00:00 -- -- -- -- -- -- -- -- --
2021-01-30 03:00:00 -- -- -- -- -- -- -- -- --
2021-01-30 02:00:00 -- -- -- -- -- -- -- -- --
2021-01-30 01:00:00 -- -- -- -- -- -- -- -- --
2021-01-30 00:00:00 -- -- -- -- -- -- -- -- --
2021-01-29 23:00:00 -- -- -- -- -- -- -- -- --
2021-01-29 22:00:00 -- -- -- -- -- -- -- -- --
2021-01-29 21:00:00 -- -- -- -- -- -- -- -- --
2021-01-29 20:00:00 -- -- -- -- -- -- -- -- --
2021-01-29 19:00:00 -- -- -- -- -- -- -- -- --
2021-01-29 18:00:00 -- -- -- -- -- -- -- -- --
2021-01-29 17:00:00 -- -- -- -- -- -- -- -- --
2021-01-29 16:00:00 -- -- -- -- -- -- -- -- --
2021-01-29 15:00:00 -- -- -- -- -- -- -- -- --
2021-01-29 14:00:00 -- -- -- -- -- -- -- -- --
2021-01-29 13:00:00 -- -- -- -- -- -- -- -- --
2021-01-29 12:00:00 -- -- -- -- -- -- -- -- --
2021-01-29 11:00:00 -- -- -- -- -- -- -- -- --
2021-01-29 10:00:00 -- -- -- -- -- -- -- -- --
2021-01-29 09:00:00 -- -- -- -- -- -- -- -- --
2021-01-29 08:00:00 -- -- -- -- -- -- -- -- --
2021-01-29 07:00:00 -- -- -- -- -- -- -- -- --
2021-01-29 06:00:00 -- -- -- -- -- -- -- -- --
2021-01-29 05:00:00 -- -- -- -- -- -- -- -- --
2021-01-29 04:00:00 -- -- -- -- -- -- -- -- --
2021-01-29 03:00:00 -- -- -- -- -- -- -- -- --
2021-01-29 02:00:00 -- -- -- -- -- -- -- -- --
2021-01-29 01:00:00 -- -- -- -- -- -- -- -- --
2021-01-29 00:00:00 -- -- -- -- -- -- -- -- --
2021-01-28 23:00:00 -- -- -- -- -- -- -- -- --
2021-01-28 22:00:00 -- -- -- -- -- -- -- -- --
2021-01-28 21:00:00 -- -- -- -- -- -- -- -- --
2021-01-28 20:00:00 -- -- -- -- -- -- -- -- --
2021-01-28 19:00:00 -- -- -- -- -- -- -- -- --
2021-01-28 18:00:00 -- -- -- -- -- -- -- -- --
2021-01-28 17:00:00 -- -- -- -- -- -- -- -- --
2021-01-28 16:00:00 -- -- -- -- -- -- -- -- --
2021-01-28 15:00:00 -- -- -- -- -- -- -- -- --
2021-01-28 14:00:00 -- -- -- -- -- -- -- -- --
2021-01-28 13:00:00 -- -- -- -- -- -- -- -- --
2021-01-28 12:00:00 -- -- -- -- -- -- -- -- --
2021-01-28 11:00:00 -- -- -- -- -- -- -- -- --
2021-01-28 10:00:00 -- -- -- -- -- -- -- -- --
2021-01-28 09:00:00 -- -- -- -- -- -- -- -- --
2021-01-28 08:00:00 -- -- -- -- -- -- -- -- --
2021-01-28 07:00:00 -- -- -- -- -- -- -- -- --
2021-01-28 06:00:00 -- -- -- -- -- -- -- -- --
2021-01-28 05:00:00 -- -- -- -- -- -- -- -- --
2021-01-28 04:00:00 -- -- -- -- -- -- -- -- --
2021-01-28 03:00:00 -- -- -- -- -- -- -- -- --
2021-01-28 02:00:00 -- -- -- -- -- -- -- -- --
2021-01-28 01:00:00 -- -- -- -- -- -- -- -- --
2021-01-28 00:00:00 -- -- -- -- -- -- -- -- --
2021-01-27 23:00:00 -- -- -- -- -- -- -- -- --
2021-01-27 22:00:00 -- -- -- -- -- -- -- -- --
2021-01-27 21:00:00 -- -- -- -- -- -- -- -- --
2021-01-27 20:00:00 -- -- -- -- -- -- -- -- --
2021-01-27 19:00:00 -- -- -- -- -- -- -- -- --
2021-01-27 18:00:00 -- -- -- -- -- -- -- -- --
2021-01-27 17:00:00 -- -- -- -- -- -- -- -- --
2021-01-27 16:00:00 -- -- -- -- -- -- -- -- --
2021-01-27 15:00:00 -- -- -- -- -- -- -- -- --
2021-01-27 14:00:00 -- -- -- -- -- -- -- -- --
2021-01-27 13:00:00 -- -- -- -- -- -- -- -- --
2021-01-27 12:00:00 -- -- -- -- -- -- -- -- --
2021-01-27 11:00:00 -- -- -- -- -- -- -- -- --
2021-01-27 10:00:00 -- -- -- -- -- -- -- -- --
2021-01-27 09:00:00 -- -- -- -- -- -- -- -- --
2021-01-27 08:00:00 -- -- -- -- -- -- -- -- --
2021-01-27 07:00:00 -- -- -- -- -- -- -- -- --
2021-01-27 06:00:00 -- -- -- -- -- -- -- -- --
2021-01-27 05:00:00 -- -- -- -- -- -- -- -- --
2021-01-27 04:00:00 -- -- -- -- -- -- -- -- --
2021-01-27 03:00:00 -- -- -- -- -- -- -- -- --
2021-01-27 02:00:00 -- -- -- -- -- -- -- -- --
2021-01-27 01:00:00 -- -- -- -- -- -- -- -- --
2021-01-27 00:00:00 -- -- -- -- -- -- -- -- --
2021-01-26 23:00:00 -- -- -- -- -- -- -- -- --
2021-01-26 22:00:00 4.7 2 Norte 10 Noroeste 0 -- -- 73
2021-01-26 21:00:00 5.4 2 Oeste 9 Noroeste 0 -- -- 68
2021-01-26 20:00:00 5.6 6 Noroeste 15 Noroeste 0 -- -- 62
2021-01-26 19:00:00 5.6 4 Noroeste 16 Noroeste 0 -- -- 57
2021-01-26 18:00:00 6.2 4 Noroeste 15 Noroeste 0 -- -- 57
2021-01-26 17:00:00 7 3 Noroeste 20 Noroeste 0 -- -- 36
2021-01-26 16:00:00 7.5 6 Noroeste 18 Noroeste 0 -- -- 34
2021-01-26 15:00:00 7.6 5 Noroeste 14 Noroeste 0 -- -- 28
2021-01-26 14:00:00 7.2 0 Calma 9 Sur 0 -- -- 29
2021-01-26 13:00:00 6.4 3 Sur 9 Sudeste 0 -- -- 33
2021-01-26 12:00:00 4.2 4 Sudeste 13 Sur 0 -- -- 47
2021-01-26 11:00:00 1.4 4 Sudeste 12 Sudeste 0 -- -- 70
2021-01-26 10:00:00 -2 0 Calma 16 Nordeste 0 -- -- 78
2021-01-26 09:00:00 -3.1 8 Nordeste 17 Nordeste 0 -- -- 81
2021-01-26 08:00:00 -3.1 3 Sudeste 20 Nordeste 0 -- -- 81
2021-01-26 07:00:00 -3.3 4 Nordeste 8 Nordeste 0 -- -- 81
2021-01-26 06:00:00 -2.8 2 Nordeste 6 Sudeste 0 -- -- 78
2021-01-26 05:00:00 -2.1 2 Sudeste 6 Sudeste 0 -- -- 75
2021-01-26 04:00:00 -1.2 2 Sur 6 Sudeste 0 -- -- 73
2021-01-26 03:00:00 -1 0 Calma 13 Sudoeste 0 -- -- 73
2021-01-26 02:00:00 -0.3 4 Sudoeste 14 Noroeste 0 -- -- 72
2021-01-26 01:00:00 0 6 Oeste 19 Oeste 0 -- -- 72
2021-01-26 00:00:00 0.2 8 Noroeste 27 Noroeste 0 -- -- 73
2021-01-25 23:00:00 0.8 11 Noroeste 24 Noroeste 0 -- -- 78
2021-01-25 22:00:00 1.3 11 Noroeste 24 Noroeste 0 -- -- 81
2021-01-25 21:00:00 1.9 10 Noroeste 23 Noroeste 0 -- -- 81
2021-01-25 20:00:00 2.4 9 Noroeste 25 Noroeste 0 -- -- 81
2021-01-25 19:00:00 3.4 10 Noroeste 24 Oeste 0 -- -- 79
2021-01-25 18:00:00 4.9 13 Noroeste 29 Noroeste 0 -- -- 79
2021-01-25 17:00:00 5.8 9 Noroeste 37 Norte 0 -- -- 83
2021-01-25 16:00:00 5.8 9 Noroeste 21 Noroeste 0 -- -- 85
2021-01-25 15:00:00 5.4 8 Noroeste 22 Noroeste 0 -- -- 88
2021-01-25 14:00:00 5 7 Noroeste 17 Oeste 0 -- -- 88
2021-01-25 13:00:00 5.1 4 Oeste 10 Noroeste 0 -- -- 89
2021-01-25 12:00:00 4.2 2 Norte 6 Oeste 0.1 -- -- 89
2021-01-25 11:00:00 3.3 3 Oeste 5 Oeste 0.5 -- -- 89
2021-01-25 10:00:00 2.8 2 Noroeste 5 Noroeste 0.9 -- -- 89
2021-01-25 09:00:00 3.2 3 Nordeste 4 Nordeste 1.4 -- -- 89
2021-01-25 08:00:00 3.3 0 Calma 10 Noroeste 1.3 -- -- 89
2021-01-25 07:00:00 3.5 6 Noroeste 11 Noroeste 1 -- -- 89
2021-01-25 06:00:00 3.5 6 Noroeste 11 Noroeste 0.7 -- -- 88
2021-01-25 05:00:00 3.5 5 Noroeste 12 Noroeste 0.4 -- -- 88
2021-01-25 04:00:00 3.3 4 Norte 8 Norte 0 -- -- 88
2021-01-25 03:00:00 3.3 0 Calma 6 Norte 0 -- -- 87
2021-01-25 02:00:00 3.2 2 Noroeste 7 Noroeste 0.2 -- -- 85
2021-01-25 01:00:00 3.3 3 Noroeste 10 Noroeste 0 -- -- 81
2021-01-25 00:00:00 3 4 Noroeste 9 Noroeste 0 -- -- 82